sensor_id;sensor_type;location;lat;lon;timestamp;temperature;humidity
21616;DHT22;10970;48.714;9.584;2023-03-13T00:01:38;6.00;99.90
21616;DHT22;10970;48.714;9.584;2023-03-13T00:04:04;6.00;99.90
21616;DHT22;10970;48.714;9.584;2023-03-13T00:06:32;5.90;99.90
21616;DHT22;10970;48.714;9.584;2023-03-13T00:08:58;5.90;99.90
21616;DHT22;10970;48.714;9.584;2023-03-13T00:11:27;5.90;99.90
21616;DHT22;10970;48.714;9.584;2023-03-13T00:13:57;5.80;99.90
21616;DHT22;10970;48.714;9.584;2023-03-13T00:16:23;5.80;99.90
21616;DHT22;10970;48.714;9.584;2023-03-13T00:18:51;5.80;99.90
21616;DHT22;10970;48.714;9.584;2023-03-13T00:21:18;5.80;99.90
21616;DHT22;10970;48.714;9.584;2023-03-13T00:23:44;5.80;99.90
21616;DHT22;10970;48.714;9.584;2023-03-13T00:26:14;5.80;99.90
21616;DHT22;10970;48.714;9.584;2023-03-13T00:28:41;5.80;99.90
21616;DHT22;10970;48.714;9.584;2023-03-13T00:31:08;5.80;99.90
21616;DHT22;10970;48.714;9.584;2023-03-13T00:33:35;5.80;99.90
21616;DHT22;10970;48.714;9.584;2023-03-13T00:36:07;5.80;99.90
21616;DHT22;10970;48.714;9.584;2023-03-13T00:38:34;5.80;99.90
21616;DHT22;10970;48.714;9.584;2023-03-13T00:41:01;5.90;99.90
21616;DHT22;10970;48.714;9.584;2023-03-13T00:43:27;5.90;99.90
21616;DHT22;10970;48.714;9.584;2023-03-13T00:45:53;5.90;99.90
21616;DHT22;10970;48.714;9.584;2023-03-13T00:48:19;5.90;99.90
21616;DHT22;10970;48.714;9.584;2023-03-13T00:50:44;5.90;99.90
21616;DHT22;10970;48.714;9.584;2023-03-13T00:53:10;6.00;99.90
21616;DHT22;10970;48.714;9.584;2023-03-13T00:55:35;6.00;99.90
21616;DHT22;10970;48.714;9.584;2023-03-13T00:58:01;6.00;99.90
21616;DHT22;10970;48.714;9.584;2023-03-13T01:00:27;6.00;99.90
21616;DHT22;10970;48.714;9.584;2023-03-13T01:02:52;5.90;99.90
21616;DHT22;10970;48.714;9.584;2023-03-13T01:05:18;6.00;99.90
21616;DHT22;10970;48.714;9.584;2023-03-13T01:07:43;6.00;99.90
21616;DHT22;10970;48.714;9.584;2023-03-13T01:10:11;6.00;99.90
21616;DHT22;10970;48.714;9.584;2023-03-13T01:12:36;6.00;99.90
21616;DHT22;10970;48.714;9.584;2023-03-13T01:15:02;6.00;99.90
21616;DHT22;10970;48.714;9.584;2023-03-13T01:17:28;6.10;99.90
21616;DHT22;10970;48.714;9.584;2023-03-13T01:19:55;6.00;99.90
21616;DHT22;10970;48.714;9.584;2023-03-13T01:22:21;6.00;99.90
21616;DHT22;10970;48.714;9.584;2023-03-13T01:24:47;6.00;99.90
21616;DHT22;10970;48.714;9.584;2023-03-13T01:27:17;6.00;99.90
21616;DHT22;10970;48.714;9.584;2023-03-13T01:29:43;6.00;99.90
21616;DHT22;10970;48.714;9.584;2023-03-13T01:32:09;6.00;99.90
21616;DHT22;10970;48.714;9.584;2023-03-13T01:34:35;6.00;99.90
21616;DHT22;10970;48.714;9.584;2023-03-13T01:37:00;5.90;99.90
21616;DHT22;10970;48.714;9.584;2023-03-13T01:39:26;6.00;99.90
21616;DHT22;10970;48.714;9.584;2023-03-13T01:41:52;5.90;99.90
21616;DHT22;10970;48.714;9.584;2023-03-13T01:44:21;5.90;99.90
21616;DHT22;10970;48.714;9.584;2023-03-13T01:46:47;5.90;99.90
21616;DHT22;10970;48.714;9.584;2023-03-13T01:49:27;5.90;99.90
21616;DHT22;10970;48.714;9.584;2023-03-13T01:52:00;5.90;99.90
21616;DHT22;10970;48.714;9.584;2023-03-13T01:54:36;5.90;99.90
21616;DHT22;10970;48.714;9.584;2023-03-13T01:57:31;5.80;99.90
21616;DHT22;10970;48.714;9.584;2023-03-13T02:02:37;5.80;99.90
21616;DHT22;10970;48.714;9.584;2023-03-13T02:05:06;5.80;99.90
21616;DHT22;10970;48.714;9.584;2023-03-13T02:07:39;5.80;99.90
21616;DHT22;10970;48.714;9.584;2023-03-13T02:10:07;5.70;99.90
21616;DHT22;10970;48.714;9.584;2023-03-13T02:12:36;5.70;99.90
21616;DHT22;10970;48.714;9.584;2023-03-13T02:15:11;5.70;99.90
21616;DHT22;10970;48.714;9.584;2023-03-13T02:17:39;5.70;99.90
21616;DHT22;10970;48.714;9.584;2023-03-13T02:20:05;5.70;99.90
21616;DHT22;10970;48.714;9.584;2023-03-13T02:22:41;5.70;99.90
21616;DHT22;10970;48.714;9.584;2023-03-13T02:28:16;5.90;99.90
21616;DHT22;10970;48.714;9.584;2023-03-13T02:30:44;5.90;99.90
21616;DHT22;10970;48.714;9.584;2023-03-13T02:33:11;5.90;99.90
21616;DHT22;10970;48.714;9.584;2023-03-13T02:35:38;5.90;99.90
21616;DHT22;10970;48.714;9.584;2023-03-13T02:38:06;5.90;99.90
21616;DHT22;10970;48.714;9.584;2023-03-13T02:40:36;6.00;99.90
21616;DHT22;10970;48.714;9.584;2023-03-13T02:43:10;6.00;99.90
21616;DHT22;10970;48.714;9.584;2023-03-13T02:45:36;6.00;99.90
21616;DHT22;10970;48.714;9.584;2023-03-13T02:48:02;6.10;99.90
21616;DHT22;10970;48.714;9.584;2023-03-13T02:50:28;6.20;99.90
21616;DHT22;10970;48.714;9.584;2023-03-13T02:53:00;6.20;99.90
21616;DHT22;10970;48.714;9.584;2023-03-13T02:55:43;6.30;99.90
21616;DHT22;10970;48.714;9.584;2023-03-13T02:58:09;6.40;99.90
21616;DHT22;10970;48.714;9.584;2023-03-13T03:00:35;6.40;99.90
21616;DHT22;10970;48.714;9.584;2023-03-13T03:03:00;6.40;99.90
21616;DHT22;10970;48.714;9.584;2023-03-13T03:05:26;6.50;99.90
21616;DHT22;10970;48.714;9.584;2023-03-13T03:07:58;6.50;99.90
21616;DHT22;10970;48.714;9.584;2023-03-13T03:10:26;6.50;99.90
21616;DHT22;10970;48.714;9.584;2023-03-13T03:12:52;6.50;99.90
21616;DHT22;10970;48.714;9.584;2023-03-13T03:15:18;6.60;99.90
21616;DHT22;10970;48.714;9.584;2023-03-13T03:17:43;6.60;99.90
21616;DHT22;10970;48.714;9.584;2023-03-13T03:20:09;6.70;99.90
21616;DHT22;10970;48.714;9.584;2023-03-13T03:22:37;6.60;99.90
21616;DHT22;10970;48.714;9.584;2023-03-13T03:25:03;6.70;99.90
21616;DHT22;10970;48.714;9.584;2023-03-13T03:27:30;6.70;99.90
21616;DHT22;10970;48.714;9.584;2023-03-13T03:29:56;6.60;99.90
21616;DHT22;10970;48.714;9.584;2023-03-13T03:32:22;6.60;99.90
21616;DHT22;10970;48.714;9.584;2023-03-13T03:34:47;6.70;99.90
21616;DHT22;10970;48.714;9.584;2023-03-13T03:37:13;6.70;99.90
21616;DHT22;10970;48.714;9.584;2023-03-13T03:39:39;6.90;99.90
21616;DHT22;10970;48.714;9.584;2023-03-13T03:42:04;7.10;99.90
21616;DHT22;10970;48.714;9.584;2023-03-13T03:44:30;7.20;99.90
21616;DHT22;10970;48.714;9.584;2023-03-13T03:46:56;7.20;99.90
21616;DHT22;10970;48.714;9.584;2023-03-13T03:49:22;7.00;99.90
21616;DHT22;10970;48.714;9.584;2023-03-13T03:51:47;7.00;99.90
21616;DHT22;10970;48.714;9.584;2023-03-13T03:54:13;6.90;99.90
21616;DHT22;10970;48.714;9.584;2023-03-13T03:56:39;6.90;99.90
21616;DHT22;10970;48.714;9.584;2023-03-13T03:59:05;6.90;99.90
21616;DHT22;10970;48.714;9.584;2023-03-13T04:01:30;6.60;99.90
21616;DHT22;10970;48.714;9.584;2023-03-13T04:03:56;6.50;99.90
21616;DHT22;10970;48.714;9.584;2023-03-13T04:06:21;6.60;99.90
21616;DHT22;10970;48.714;9.584;2023-03-13T04:08:47;6.60;99.90
21616;DHT22;10970;48.714;9.584;2023-03-13T04:11:13;6.60;99.90
21616;DHT22;10970;48.714;9.584;2023-03-13T04:13:38;6.60;99.90
21616;DHT22;10970;48.714;9.584;2023-03-13T04:16:08;6.60;99.90
21616;DHT22;10970;48.714;9.584;2023-03-13T04:18:34;6.70;99.90
21616;DHT22;10970;48.714;9.584;2023-03-13T04:21:03;6.70;99.90
21616;DHT22;10970;48.714;9.584;2023-03-13T04:23:29;6.70;99.90
21616;DHT22;10970;48.714;9.584;2023-03-13T04:25:55;6.70;99.90
21616;DHT22;10970;48.714;9.584;2023-03-13T04:28:20;6.70;99.90
21616;DHT22;10970;48.714;9.584;2023-03-13T04:30:46;6.70;99.90
21616;DHT22;10970;48.714;9.584;2023-03-13T04:33:11;6.60;99.90
21616;DHT22;10970;48.714;9.584;2023-03-13T04:35:37;6.60;99.90
21616;DHT22;10970;48.714;9.584;2023-03-13T04:38:03;6.70;99.90
21616;DHT22;10970;48.714;9.584;2023-03-13T04:40:28;6.60;99.90
21616;DHT22;10970;48.714;9.584;2023-03-13T04:42:54;6.60;99.90
21616;DHT22;10970;48.714;9.584;2023-03-13T04:45:19;6.70;99.90
21616;DHT22;10970;48.714;9.584;2023-03-13T04:47:46;6.70;99.90
21616;DHT22;10970;48.714;9.584;2023-03-13T04:50:11;6.70;99.90
21616;DHT22;10970;48.714;9.584;2023-03-13T04:52:37;6.80;99.90
21616;DHT22;10970;48.714;9.584;2023-03-13T04:55:03;6.80;99.90
21616;DHT22;10970;48.714;9.584;2023-03-13T04:57:29;6.80;99.90
21616;DHT22;10970;48.714;9.584;2023-03-13T04:59:54;6.90;99.90
21616;DHT22;10970;48.714;9.584;2023-03-13T05:02:20;6.90;99.90
21616;DHT22;10970;48.714;9.584;2023-03-13T05:04:46;7.00;99.90
21616;DHT22;10970;48.714;9.584;2023-03-13T05:07:11;7.00;99.90
21616;DHT22;10970;48.714;9.584;2023-03-13T05:09:37;7.20;99.90
21616;DHT22;10970;48.714;9.584;2023-03-13T05:12:03;7.20;99.90
21616;DHT22;10970;48.714;9.584;2023-03-13T05:14:28;7.20;99.90
21616;DHT22;10970;48.714;9.584;2023-03-13T05:16:54;7.20;99.90
21616;DHT22;10970;48.714;9.584;2023-03-13T05:19:20;7.20;99.90
21616;DHT22;10970;48.714;9.584;2023-03-13T05:21:45;7.20;99.90
21616;DHT22;10970;48.714;9.584;2023-03-13T05:24:11;7.20;99.90
21616;DHT22;10970;48.714;9.584;2023-03-13T05:26:37;7.30;99.90
21616;DHT22;10970;48.714;9.584;2023-03-13T05:29:02;7.30;99.90
21616;DHT22;10970;48.714;9.584;2023-03-13T05:31:28;7.40;99.90
21616;DHT22;10970;48.714;9.584;2023-03-13T05:33:54;7.40;99.90
21616;DHT22;10970;48.714;9.584;2023-03-13T05:36:19;7.20;99.90
21616;DHT22;10970;48.714;9.584;2023-03-13T05:38:45;7.30;99.90
21616;DHT22;10970;48.714;9.584;2023-03-13T05:41:10;7.30;99.90
21616;DHT22;10970;48.714;9.584;2023-03-13T05:43:36;7.30;99.90
21616;DHT22;10970;48.714;9.584;2023-03-13T05:46:01;7.30;99.90
21616;DHT22;10970;48.714;9.584;2023-03-13T05:48:27;7.40;99.90
21616;DHT22;10970;48.714;9.584;2023-03-13T05:50:53;7.50;99.90
21616;DHT22;10970;48.714;9.584;2023-03-13T05:53:18;7.60;99.90
21616;DHT22;10970;48.714;9.584;2023-03-13T05:55:44;7.60;99.90
21616;DHT22;10970;48.714;9.584;2023-03-13T05:58:10;7.70;99.90
21616;DHT22;10970;48.714;9.584;2023-03-13T06:00:35;7.70;99.90
21616;DHT22;10970;48.714;9.584;2023-03-13T06:03:01;7.70;99.90
21616;DHT22;10970;48.714;9.584;2023-03-13T06:05:26;7.70;99.90
21616;DHT22;10970;48.714;9.584;2023-03-13T06:07:52;7.80;99.90
21616;DHT22;10970;48.714;9.584;2023-03-13T06:10:18;7.90;99.90
21616;DHT22;10970;48.714;9.584;2023-03-13T06:12:43;7.80;99.90
21616;DHT22;10970;48.714;9.584;2023-03-13T06:15:09;7.80;99.90
21616;DHT22;10970;48.714;9.584;2023-03-13T06:17:35;7.90;99.90
21616;DHT22;10970;48.714;9.584;2023-03-13T06:20:02;7.80;99.90
21616;DHT22;10970;48.714;9.584;2023-03-13T06:22:29;7.80;99.90
21616;DHT22;10970;48.714;9.584;2023-03-13T06:24:55;7.80;99.90
21616;DHT22;10970;48.714;9.584;2023-03-13T06:27:21;7.80;99.90
21616;DHT22;10970;48.714;9.584;2023-03-13T06:29:47;7.90;99.90
21616;DHT22;10970;48.714;9.584;2023-03-13T06:32:12;7.90;99.90
21616;DHT22;10970;48.714;9.584;2023-03-13T06:34:38;7.90;99.90
21616;DHT22;10970;48.714;9.584;2023-03-13T06:37:10;8.00;99.90
21616;DHT22;10970;48.714;9.584;2023-03-13T06:39:36;8.10;99.90
21616;DHT22;10970;48.714;9.584;2023-03-13T06:42:01;8.80;99.90
21616;DHT22;10970;48.714;9.584;2023-03-13T06:44:27;8.40;99.90
21616;DHT22;10970;48.714;9.584;2023-03-13T06:46:53;8.50;99.90
21616;DHT22;10970;48.714;9.584;2023-03-13T06:49:18;8.60;99.90
21616;DHT22;10970;48.714;9.584;2023-03-13T06:51:44;8.70;99.90
21616;DHT22;10970;48.714;9.584;2023-03-13T06:54:10;8.90;99.90
21616;DHT22;10970;48.714;9.584;2023-03-13T06:56:35;9.20;99.90
21616;DHT22;10970;48.714;9.584;2023-03-13T06:59:01;9.30;99.90
21616;DHT22;10970;48.714;9.584;2023-03-13T07:01:27;9.40;99.90
21616;DHT22;10970;48.714;9.584;2023-03-13T07:03:52;9.50;99.90
21616;DHT22;10970;48.714;9.584;2023-03-13T07:06:18;9.60;99.90
21616;DHT22;10970;48.714;9.584;2023-03-13T07:08:44;9.60;99.90
21616;DHT22;10970;48.714;9.584;2023-03-13T07:11:11;9.70;99.90
21616;DHT22;10970;48.714;9.584;2023-03-13T07:13:37;9.90;99.90
21616;DHT22;10970;48.714;9.584;2023-03-13T07:16:09;10.10;99.90
21616;DHT22;10970;48.714;9.584;2023-03-13T07:18:36;10.30;99.90
21616;DHT22;10970;48.714;9.584;2023-03-13T07:21:03;10.40;99.90
21616;DHT22;10970;48.714;9.584;2023-03-13T07:23:30;10.50;99.90
21616;DHT22;10970;48.714;9.584;2023-03-13T07:25:58;10.50;99.90
21616;DHT22;10970;48.714;9.584;2023-03-13T07:28:26;10.60;99.90
21616;DHT22;10970;48.714;9.584;2023-03-13T07:30:52;10.50;99.90
21616;DHT22;10970;48.714;9.584;2023-03-13T07:33:18;10.50;99.90
21616;DHT22;10970;48.714;9.584;2023-03-13T07:35:51;10.70;99.90
21616;DHT22;10970;48.714;9.584;2023-03-13T07:38:17;10.70;99.90
21616;DHT22;10970;48.714;9.584;2023-03-13T07:40:54;10.80;99.90
21616;DHT22;10970;48.714;9.584;2023-03-13T07:43:20;10.90;99.90
21616;DHT22;10970;48.714;9.584;2023-03-13T07:46:03;10.90;99.90
21616;DHT22;10970;48.714;9.584;2023-03-13T07:48:34;11.10;99.90
21616;DHT22;10970;48.714;9.584;2023-03-13T07:51:00;11.10;99.90
21616;DHT22;10970;48.714;9.584;2023-03-13T07:53:27;11.20;99.90
21616;DHT22;10970;48.714;9.584;2023-03-13T07:55:58;11.40;99.90
21616;DHT22;10970;48.714;9.584;2023-03-13T07:58:27;11.50;99.90
21616;DHT22;10970;48.714;9.584;2023-03-13T08:00:53;11.60;99.90
21616;DHT22;10970;48.714;9.584;2023-03-13T08:03:19;11.70;99.90
21616;DHT22;10970;48.714;9.584;2023-03-13T08:05:45;11.80;99.90
21616;DHT22;10970;48.714;9.584;2023-03-13T08:08:11;11.90;99.90
21616;DHT22;10970;48.714;9.584;2023-03-13T08:10:37;12.00;99.90
21616;DHT22;10970;48.714;9.584;2023-03-13T08:13:03;12.10;99.90
21616;DHT22;10970;48.714;9.584;2023-03-13T08:15:28;12.10;99.90
21616;DHT22;10970;48.714;9.584;2023-03-13T08:17:55;12.20;99.90
21616;DHT22;10970;48.714;9.584;2023-03-13T08:20:21;12.20;99.90
21616;DHT22;10970;48.714;9.584;2023-03-13T08:22:47;12.30;99.90
21616;DHT22;10970;48.714;9.584;2023-03-13T08:25:13;12.40;99.90
21616;DHT22;10970;48.714;9.584;2023-03-13T08:27:39;12.50;99.90
21616;DHT22;10970;48.714;9.584;2023-03-13T08:30:05;12.60;99.90
21616;DHT22;10970;48.714;9.584;2023-03-13T08:32:35;12.80;99.90
21616;DHT22;10970;48.714;9.584;2023-03-13T08:35:02;12.90;99.90
21616;DHT22;10970;48.714;9.584;2023-03-13T08:37:28;13.10;99.90
21616;DHT22;10970;48.714;9.584;2023-03-13T08:39:53;13.20;99.90
21616;DHT22;10970;48.714;9.584;2023-03-13T08:42:21;13.40;99.90
21616;DHT22;10970;48.714;9.584;2023-03-13T08:44:47;13.40;99.90
21616;DHT22;10970;48.714;9.584;2023-03-13T08:47:13;13.50;99.90
21616;DHT22;10970;48.714;9.584;2023-03-13T08:49:39;13.60;99.90
21616;DHT22;10970;48.714;9.584;2023-03-13T08:52:07;13.80;99.90
21616;DHT22;10970;48.714;9.584;2023-03-13T08:54:33;14.00;99.90
21616;DHT22;10970;48.714;9.584;2023-03-13T08:56:59;14.10;99.90
21616;DHT22;10970;48.714;9.584;2023-03-13T08:59:25;14.40;99.90
21616;DHT22;10970;48.714;9.584;2023-03-13T09:01:51;14.60;99.90
21616;DHT22;10970;48.714;9.584;2023-03-13T09:04:17;14.80;99.90
21616;DHT22;10970;48.714;9.584;2023-03-13T09:06:43;14.90;99.90
21616;DHT22;10970;48.714;9.584;2023-03-13T09:09:09;14.80;99.90
21616;DHT22;10970;48.714;9.584;2023-03-13T09:11:37;14.70;99.90
21616;DHT22;10970;48.714;9.584;2023-03-13T09:14:03;14.60;99.90
21616;DHT22;10970;48.714;9.584;2023-03-13T09:16:31;14.60;99.90
21616;DHT22;10970;48.714;9.584;2023-03-13T09:18:57;14.70;99.90
21616;DHT22;10970;48.714;9.584;2023-03-13T09:21:32;14.80;99.90
21616;DHT22;10970;48.714;9.584;2023-03-13T09:23:59;14.80;99.90
21616;DHT22;10970;48.714;9.584;2023-03-13T09:26:25;14.90;99.90
21616;DHT22;10970;48.714;9.584;2023-03-13T09:28:52;14.90;99.90
21616;DHT22;10970;48.714;9.584;2023-03-13T09:31:36;14.90;99.90
21616;DHT22;10970;48.714;9.584;2023-03-13T09:34:03;14.90;99.90
21616;DHT22;10970;48.714;9.584;2023-03-13T09:36:29;15.00;99.90
21616;DHT22;10970;48.714;9.584;2023-03-13T09:38:56;15.10;99.90
21616;DHT22;10970;48.714;9.584;2023-03-13T09:47:02;15.10;99.90
21616;DHT22;10970;48.714;9.584;2023-03-13T09:49:42;15.30;99.90
21616;DHT22;10970;48.714;9.584;2023-03-13T09:52:23;15.40;99.90
21616;DHT22;10970;48.714;9.584;2023-03-13T09:54:58;15.50;99.90
21616;DHT22;10970;48.714;9.584;2023-03-13T09:57:37;15.50;99.90
21616;DHT22;10970;48.714;9.584;2023-03-13T10:00:12;15.50;99.90
21616;DHT22;10970;48.714;9.584;2023-03-13T10:02:42;15.40;99.90
21616;DHT22;10970;48.714;9.584;2023-03-13T10:05:22;15.30;99.90
21616;DHT22;10970;48.714;9.584;2023-03-13T10:07:49;15.10;99.90
21616;DHT22;10970;48.714;9.584;2023-03-13T10:10:46;15.00;99.90
21616;DHT22;10970;48.714;9.584;2023-03-13T10:16:13;15.10;99.90
21616;DHT22;10970;48.714;9.584;2023-03-13T10:18:44;15.30;99.90
21616;DHT22;10970;48.714;9.584;2023-03-13T10:21:20;15.30;99.90
21616;DHT22;10970;48.714;9.584;2023-03-13T10:24:01;15.30;99.90
21616;DHT22;10970;48.714;9.584;2023-03-13T10:26:31;15.40;99.90
21616;DHT22;10970;48.714;9.584;2023-03-13T10:29:10;15.50;99.90
21616;DHT22;10970;48.714;9.584;2023-03-13T10:31:41;15.60;99.90
21616;DHT22;10970;48.714;9.584;2023-03-13T10:34:12;15.70;99.90
21616;DHT22;10970;48.714;9.584;2023-03-13T10:36:48;16.00;99.90
21616;DHT22;10970;48.714;9.584;2023-03-13T10:39:20;16.20;99.90
21616;DHT22;10970;48.714;9.584;2023-03-13T10:41:47;16.40;99.90
21616;DHT22;10970;48.714;9.584;2023-03-13T10:44:16;16.50;99.90
21616;DHT22;10970;48.714;9.584;2023-03-13T10:46:44;16.70;99.90
21616;DHT22;10970;48.714;9.584;2023-03-13T10:51:54;16.80;99.90
21616;DHT22;10970;48.714;9.584;2023-03-13T10:54:22;16.90;99.90
21616;DHT22;10970;48.714;9.584;2023-03-13T10:57:06;17.00;99.90
21616;DHT22;10970;48.714;9.584;2023-03-13T10:59:32;17.10;99.90
21616;DHT22;10970;48.714;9.584;2023-03-13T11:02:34;17.00;99.90
21616;DHT22;10970;48.714;9.584;2023-03-13T11:05:44;17.00;99.90
21616;DHT22;10970;48.714;9.584;2023-03-13T11:07:51;17.20;99.90
21616;DHT22;10970;48.714;9.584;2023-03-13T11:10:27;17.00;99.90
21616;DHT22;10970;48.714;9.584;2023-03-13T11:12:57;17.10;99.90
21616;DHT22;10970;48.714;9.584;2023-03-13T11:15:30;17.30;99.90
21616;DHT22;10970;48.714;9.584;2023-03-13T11:18:35;17.50;99.90
21616;DHT22;10970;48.714;9.584;2023-03-13T11:21:04;17.50;99.90
21616;DHT22;10970;48.714;9.584;2023-03-13T11:23:38;17.40;99.90
21616;DHT22;10970;48.714;9.584;2023-03-13T11:31:32;18.10;99.90
21616;DHT22;10970;48.714;9.584;2023-03-13T12:00:57;18.60;99.90
21616;DHT22;10970;48.714;9.584;2023-03-13T12:05:59;18.60;99.90
21616;DHT22;10970;48.714;9.584;2023-03-13T12:13:33;18.60;99.90
21616;DHT22;10970;48.714;9.584;2023-03-13T12:16:08;18.50;99.90
21616;DHT22;10970;48.714;9.584;2023-03-13T12:18:39;18.50;99.90
21616;DHT22;10970;48.714;9.584;2023-03-13T12:26:44;18.50;99.90
21616;DHT22;10970;48.714;9.584;2023-03-13T12:29:15;18.50;99.90
21616;DHT22;10970;48.714;9.584;2023-03-13T12:31:54;18.50;99.90
21616;DHT22;10970;48.714;9.584;2023-03-13T12:37:04;18.50;99.90
21616;DHT22;10970;48.714;9.584;2023-03-13T12:39:42;18.70;99.90
21616;DHT22;10970;48.714;9.584;2023-03-13T12:44:40;18.80;99.90
21616;DHT22;10970;48.714;9.584;2023-03-13T12:47:13;18.90;99.90
21616;DHT22;10970;48.714;9.584;2023-03-13T12:49:51;18.90;99.90
21616;DHT22;10970;48.714;9.584;2023-03-13T13:00:21;19.00;99.90
21616;DHT22;10970;48.714;9.584;2023-03-13T13:03:23;18.90;99.90
21616;DHT22;10970;48.714;9.584;2023-03-13T13:06:09;18.90;99.90
21616;DHT22;10970;48.714;9.584;2023-03-13T13:08:40;18.90;99.90
21616;DHT22;10970;48.714;9.584;2023-03-13T13:13:56;19.10;99.90
21616;DHT22;10970;48.714;9.584;2023-03-13T13:16:22;19.10;99.90
21616;DHT22;10970;48.714;9.584;2023-03-13T13:18:48;19.20;99.90
21616;DHT22;10970;48.714;9.584;2023-03-13T13:23:41;19.30;99.90
21616;DHT22;10970;48.714;9.584;2023-03-13T13:45:01;20.10;99.90
21616;DHT22;10970;48.714;9.584;2023-03-13T13:47:29;20.20;99.90
21616;DHT22;10970;48.714;9.584;2023-03-13T13:49:57;20.20;99.90
21616;DHT22;10970;48.714;9.584;2023-03-13T13:54:58;20.20;99.90
21616;DHT22;10970;48.714;9.584;2023-03-13T13:57:30;20.30;99.90
21616;DHT22;10970;48.714;9.584;2023-03-13T14:02:34;20.40;99.90
21616;DHT22;10970;48.714;9.584;2023-03-13T14:05:19;20.40;99.90
21616;DHT22;10970;48.714;9.584;2023-03-13T14:08:05;20.50;99.90
21616;DHT22;10970;48.714;9.584;2023-03-13T14:10:41;20.50;99.90
21616;DHT22;10970;48.714;9.584;2023-03-13T14:13:25;20.50;99.90
21616;DHT22;10970;48.714;9.584;2023-03-13T14:15:51;20.60;99.90
21616;DHT22;10970;48.714;9.584;2023-03-13T14:18:21;20.50;99.90
21616;DHT22;10970;48.714;9.584;2023-03-13T14:21:03;20.50;99.90
21616;DHT22;10970;48.714;9.584;2023-03-13T14:23:42;20.60;99.90
21616;DHT22;10970;48.714;9.584;2023-03-13T14:28:52;20.60;99.90
21616;DHT22;10970;48.714;9.584;2023-03-13T14:33:50;20.60;99.90
21616;DHT22;10970;48.714;9.584;2023-03-13T14:36:16;20.60;99.90
21616;DHT22;10970;48.714;9.584;2023-03-13T14:38:56;20.60;99.90
21616;DHT22;10970;48.714;9.584;2023-03-13T14:41:43;20.70;99.90
21616;DHT22;10970;48.714;9.584;2023-03-13T14:44:25;20.60;99.90
21616;DHT22;10970;48.714;9.584;2023-03-13T14:46:58;20.80;99.90
21616;DHT22;10970;48.714;9.584;2023-03-13T14:49:27;20.80;99.90
21616;DHT22;10970;48.714;9.584;2023-03-13T14:52:04;20.90;99.90
21616;DHT22;10970;48.714;9.584;2023-03-13T14:54:35;20.90;99.90
21616;DHT22;10970;48.714;9.584;2023-03-13T14:57:22;20.80;99.90
21616;DHT22;10970;48.714;9.584;2023-03-13T14:59:50;20.80;99.90
21616;DHT22;10970;48.714;9.584;2023-03-13T15:04:56;20.80;99.90
21616;DHT22;10970;48.714;9.584;2023-03-13T15:07:26;20.70;99.90
21616;DHT22;10970;48.714;9.584;2023-03-13T15:09:52;20.60;99.90
21616;DHT22;10970;48.714;9.584;2023-03-13T15:12:21;20.60;99.90
21616;DHT22;10970;48.714;9.584;2023-03-13T15:14:49;20.60;99.90
21616;DHT22;10970;48.714;9.584;2023-03-13T15:17:21;20.60;99.90
21616;DHT22;10970;48.714;9.584;2023-03-13T15:19:55;20.40;99.90
21616;DHT22;10970;48.714;9.584;2023-03-13T15:22:31;20.20;99.90
21616;DHT22;10970;48.714;9.584;2023-03-13T15:24:58;20.10;99.90
21616;DHT22;10970;48.714;9.584;2023-03-13T15:27:25;20.10;99.90
21616;DHT22;10970;48.714;9.584;2023-03-13T15:29:51;20.10;99.90
21616;DHT22;10970;48.714;9.584;2023-03-13T15:32:28;20.20;99.90
21616;DHT22;10970;48.714;9.584;2023-03-13T15:34:55;20.20;99.90
21616;DHT22;10970;48.714;9.584;2023-03-13T15:37:32;20.20;99.90
21616;DHT22;10970;48.714;9.584;2023-03-13T15:39:59;20.00;99.90
21616;DHT22;10970;48.714;9.584;2023-03-13T15:42:25;19.80;99.90
21616;DHT22;10970;48.714;9.584;2023-03-13T15:44:50;19.70;99.90
21616;DHT22;10970;48.714;9.584;2023-03-13T15:47:18;19.70;99.90
21616;DHT22;10970;48.714;9.584;2023-03-13T15:49:44;19.70;99.90
21616;DHT22;10970;48.714;9.584;2023-03-13T15:52:15;19.60;99.90
21616;DHT22;10970;48.714;9.584;2023-03-13T15:54:45;19.40;99.90
21616;DHT22;10970;48.714;9.584;2023-03-13T15:57:23;19.30;99.90
21616;DHT22;10970;48.714;9.584;2023-03-13T15:59:51;19.30;99.90
21616;DHT22;10970;48.714;9.584;2023-03-13T16:02:19;19.30;99.90
21616;DHT22;10970;48.714;9.584;2023-03-13T16:04:45;19.20;99.90
21616;DHT22;10970;48.714;9.584;2023-03-13T16:07:12;19.00;99.90
21616;DHT22;10970;48.714;9.584;2023-03-13T16:09:42;19.00;99.90
21616;DHT22;10970;48.714;9.584;2023-03-13T16:12:09;18.90;99.90
21616;DHT22;10970;48.714;9.584;2023-03-13T16:14:35;18.80;99.90
21616;DHT22;10970;48.714;9.584;2023-03-13T16:17:03;18.70;99.90
21616;DHT22;10970;48.714;9.584;2023-03-13T16:19:35;18.70;99.90
21616;DHT22;10970;48.714;9.584;2023-03-13T16:22:00;18.50;99.90
21616;DHT22;10970;48.714;9.584;2023-03-13T16:24:26;18.50;99.90
21616;DHT22;10970;48.714;9.584;2023-03-13T16:26:53;18.40;99.90
21616;DHT22;10970;48.714;9.584;2023-03-13T16:29:19;18.50;99.90
21616;DHT22;10970;48.714;9.584;2023-03-13T16:31:44;18.60;99.90
21616;DHT22;10970;48.714;9.584;2023-03-13T16:34:10;18.60;99.90
21616;DHT22;10970;48.714;9.584;2023-03-13T16:36:36;18.70;99.90
21616;DHT22;10970;48.714;9.584;2023-03-13T16:39:09;18.70;99.90
21616;DHT22;10970;48.714;9.584;2023-03-13T16:41:37;18.50;99.90
21616;DHT22;10970;48.714;9.584;2023-03-13T16:44:03;18.40;99.90
21616;DHT22;10970;48.714;9.584;2023-03-13T16:46:35;18.40;99.90
21616;DHT22;10970;48.714;9.584;2023-03-13T16:49:02;18.40;99.90
21616;DHT22;10970;48.714;9.584;2023-03-13T16:51:28;18.30;99.90
21616;DHT22;10970;48.714;9.584;2023-03-13T16:53:56;18.30;99.90
21616;DHT22;10970;48.714;9.584;2023-03-13T16:56:32;18.20;99.90
21616;DHT22;10970;48.714;9.584;2023-03-13T16:59:00;18.10;99.90
21616;DHT22;10970;48.714;9.584;2023-03-13T17:01:26;17.90;99.90
21616;DHT22;10970;48.714;9.584;2023-03-13T17:03:55;17.80;99.90
21616;DHT22;10970;48.714;9.584;2023-03-13T17:08:52;17.70;99.90
21616;DHT22;10970;48.714;9.584;2023-03-13T17:11:19;17.70;99.90
21616;DHT22;10970;48.714;9.584;2023-03-13T17:13:50;17.50;99.90
21616;DHT22;10970;48.714;9.584;2023-03-13T17:16:19;17.40;99.90
21616;DHT22;10970;48.714;9.584;2023-03-13T17:18:47;17.30;99.90
21616;DHT22;10970;48.714;9.584;2023-03-13T17:21:19;17.30;99.90
21616;DHT22;10970;48.714;9.584;2023-03-13T17:23:45;17.10;99.90
21616;DHT22;10970;48.714;9.584;2023-03-13T17:26:32;17.00;99.90
21616;DHT22;10970;48.714;9.584;2023-03-13T17:28:59;16.90;99.90
21616;DHT22;10970;48.714;9.584;2023-03-13T17:31:26;16.80;99.90
21616;DHT22;10970;48.714;9.584;2023-03-13T17:33:52;16.80;99.90
21616;DHT22;10970;48.714;9.584;2023-03-13T17:36:22;16.80;99.90
21616;DHT22;10970;48.714;9.584;2023-03-13T17:38:53;16.60;99.90
21616;DHT22;10970;48.714;9.584;2023-03-13T17:41:22;16.60;99.90
21616;DHT22;10970;48.714;9.584;2023-03-13T17:43:50;16.50;99.90